sensor_id;sensor_type;location;lat;lon;timestamp;temperature;humidity
57829;DHT22;43657;52.698;6.314;2023-03-23T00:31:43;11.10;99.90
57829;DHT22;43657;52.698;6.314;2023-03-23T00:34:22;11.10;99.90
57829;DHT22;43657;52.698;6.314;2023-03-23T00:36:52;11.00;99.90
57829;DHT22;43657;52.698;6.314;2023-03-23T00:39:19;11.00;99.90
57829;DHT22;43657;52.698;6.314;2023-03-23T00:41:45;11.00;99.90
57829;DHT22;43657;52.698;6.314;2023-03-23T00:44:12;11.00;99.90
57829;DHT22;43657;52.698;6.314;2023-03-23T00:46:46;11.00;99.90
57829;DHT22;43657;52.698;6.314;2023-03-23T00:49:16;11.00;99.90
57829;DHT22;43657;52.698;6.314;2023-03-23T00:51:42;11.00;99.90
57829;DHT22;43657;52.698;6.314;2023-03-23T00:54:08;11.00;99.90
57829;DHT22;43657;52.698;6.314;2023-03-23T00:56:35;11.00;99.90
57829;DHT22;43657;52.698;6.314;2023-03-23T00:59:01;11.00;99.90
57829;DHT22;43657;52.698;6.314;2023-03-23T01:01:26;11.00;99.90
57829;DHT22;43657;52.698;6.314;2023-03-23T01:03:52;11.00;99.90
57829;DHT22;43657;52.698;6.314;2023-03-23T01:06:36;11.00;99.90
57829;DHT22;43657;52.698;6.314;2023-03-23T01:09:05;11.00;99.90
57829;DHT22;43657;52.698;6.314;2023-03-23T01:11:31;11.00;99.90
57829;DHT22;43657;52.698;6.314;2023-03-23T01:13:57;11.00;99.90
57829;DHT22;43657;52.698;6.314;2023-03-23T01:16:23;11.00;99.90
57829;DHT22;43657;52.698;6.314;2023-03-23T01:18:48;11.00;99.90
57829;DHT22;43657;52.698;6.314;2023-03-23T01:21:17;11.00;99.90
57829;DHT22;43657;52.698;6.314;2023-03-23T01:23:43;11.00;99.90
57829;DHT22;43657;52.698;6.314;2023-03-23T01:26:18;11.00;99.90
57829;DHT22;43657;52.698;6.314;2023-03-23T01:28:45;11.10;99.90
57829;DHT22;43657;52.698;6.314;2023-03-23T01:31:14;11.10;99.90
57829;DHT22;43657;52.698;6.314;2023-03-23T01:33:41;11.10;99.90
57829;DHT22;43657;52.698;6.314;2023-03-23T01:36:12;11.10;99.90
57829;DHT22;43657;52.698;6.314;2023-03-23T01:38:38;11.10;99.90
57829;DHT22;43657;52.698;6.314;2023-03-23T01:41:04;11.20;99.90
57829;DHT22;43657;52.698;6.314;2023-03-23T01:43:30;11.10;99.90
57829;DHT22;43657;52.698;6.314;2023-03-23T01:45:56;11.10;99.90
57829;DHT22;43657;52.698;6.314;2023-03-23T01:48:24;11.20;99.90
57829;DHT22;43657;52.698;6.314;2023-03-23T01:50:59;11.20;99.90
57829;DHT22;43657;52.698;6.314;2023-03-23T01:53:32;11.20;99.90
57829;DHT22;43657;52.698;6.314;2023-03-23T01:55:59;11.10;99.90
57829;DHT22;43657;52.698;6.314;2023-03-23T01:58:27;11.10;99.90
57829;DHT22;43657;52.698;6.314;2023-03-23T02:00:57;11.10;99.90
57829;DHT22;43657;52.698;6.314;2023-03-23T02:03:27;11.10;99.90
57829;DHT22;43657;52.698;6.314;2023-03-23T02:05:54;11.10;99.90
57829;DHT22;43657;52.698;6.314;2023-03-23T02:08:24;11.10;99.90
57829;DHT22;43657;52.698;6.314;2023-03-23T02:10:52;11.10;99.90
57829;DHT22;43657;52.698;6.314;2023-03-23T02:13:17;11.10;99.90
57829;DHT22;43657;52.698;6.314;2023-03-23T02:21:33;11.10;99.90
57829;DHT22;43657;52.698;6.314;2023-03-23T02:27:05;11.10;99.90
57829;DHT22;43657;52.698;6.314;2023-03-23T02:35:39;11.00;99.90
57829;DHT22;43657;52.698;6.314;2023-03-23T02:38:17;11.00;99.90
57829;DHT22;43657;52.698;6.314;2023-03-23T02:40:46;11.00;99.90
57829;DHT22;43657;52.698;6.314;2023-03-23T02:43:18;11.00;99.90
57829;DHT22;43657;52.698;6.314;2023-03-23T02:45:45;11.00;99.90
57829;DHT22;43657;52.698;6.314;2023-03-23T02:48:14;10.90;99.90
57829;DHT22;43657;52.698;6.314;2023-03-23T02:50:44;10.90;99.90
57829;DHT22;43657;52.698;6.314;2023-03-23T02:53:12;11.00;99.90
57829;DHT22;43657;52.698;6.314;2023-03-23T02:55:42;11.00;99.90
57829;DHT22;43657;52.698;6.314;2023-03-23T02:58:10;11.00;99.90
57829;DHT22;43657;52.698;6.314;2023-03-23T03:00:38;11.00;99.90
57829;DHT22;43657;52.698;6.314;2023-03-23T03:03:09;11.00;99.90
57829;DHT22;43657;52.698;6.314;2023-03-23T03:05:58;11.00;99.90
57829;DHT22;43657;52.698;6.314;2023-03-23T03:08:45;11.00;99.90
57829;DHT22;43657;52.698;6.314;2023-03-23T03:11:17;10.90;99.90
57829;DHT22;43657;52.698;6.314;2023-03-23T03:14:07;11.00;99.90
57829;DHT22;43657;52.698;6.314;2023-03-23T03:16:43;11.00;99.90
57829;DHT22;43657;52.698;6.314;2023-03-23T03:19:20;11.00;99.90
57829;DHT22;43657;52.698;6.314;2023-03-23T03:21:52;11.10;99.90
57829;DHT22;43657;52.698;6.314;2023-03-23T03:24:20;11.00;99.90
57829;DHT22;43657;52.698;6.314;2023-03-23T03:26:50;11.10;99.90
57829;DHT22;43657;52.698;6.314;2023-03-23T03:29:20;11.10;99.90
57829;DHT22;43657;52.698;6.314;2023-03-23T03:31:47;11.00;99.90
57829;DHT22;43657;52.698;6.314;2023-03-23T03:34:15;11.00;99.90
57829;DHT22;43657;52.698;6.314;2023-03-23T03:36:44;11.10;99.90
57829;DHT22;43657;52.698;6.314;2023-03-23T03:39:12;11.10;99.90
57829;DHT22;43657;52.698;6.314;2023-03-23T03:41:40;11.10;99.90
57829;DHT22;43657;52.698;6.314;2023-03-23T03:44:06;11.20;99.90
57829;DHT22;43657;52.698;6.314;2023-03-23T03:46:34;11.20;99.90
57829;DHT22;43657;52.698;6.314;2023-03-23T03:49:02;11.10;99.90
57829;DHT22;43657;52.698;6.314;2023-03-23T03:51:29;11.10;99.90
57829;DHT22;43657;52.698;6.314;2023-03-23T03:53:55;11.10;99.90
57829;DHT22;43657;52.698;6.314;2023-03-23T03:56:22;11.00;99.90
57829;DHT22;43657;52.698;6.314;2023-03-23T03:58:48;11.10;99.90
57829;DHT22;43657;52.698;6.314;2023-03-23T04:01:14;11.10;99.90
57829;DHT22;43657;52.698;6.314;2023-03-23T04:03:41;11.10;99.90
57829;DHT22;43657;52.698;6.314;2023-03-23T04:06:07;11.10;99.90
57829;DHT22;43657;52.698;6.314;2023-03-23T04:08:38;11.20;99.90
57829;DHT22;43657;52.698;6.314;2023-03-23T04:11:04;11.20;99.90
57829;DHT22;43657;52.698;6.314;2023-03-23T04:13:31;11.30;99.90
57829;DHT22;43657;52.698;6.314;2023-03-23T04:15:56;11.30;99.90
57829;DHT22;43657;52.698;6.314;2023-03-23T04:18:22;11.30;99.90
57829;DHT22;43657;52.698;6.314;2023-03-23T04:20:49;11.30;99.90
57829;DHT22;43657;52.698;6.314;2023-03-23T04:23:16;11.30;99.90
57829;DHT22;43657;52.698;6.314;2023-03-23T04:25:49;11.20;99.90
57829;DHT22;43657;52.698;6.314;2023-03-23T04:28:16;11.10;99.90
57829;DHT22;43657;52.698;6.314;2023-03-23T04:30:44;11.00;99.90
57829;DHT22;43657;52.698;6.314;2023-03-23T04:33:11;11.00;99.90
57829;DHT22;43657;52.698;6.314;2023-03-23T04:35:40;11.00;99.90
57829;DHT22;43657;52.698;6.314;2023-03-23T04:38:07;11.00;99.90
57829;DHT22;43657;52.698;6.314;2023-03-23T04:40:36;11.00;99.90
57829;DHT22;43657;52.698;6.314;2023-03-23T04:43:02;11.00;99.90
57829;DHT22;43657;52.698;6.314;2023-03-23T04:45:32;10.90;99.90
57829;DHT22;43657;52.698;6.314;2023-03-23T04:47:58;10.90;99.90
57829;DHT22;43657;52.698;6.314;2023-03-23T04:50:30;10.80;99.90
57829;DHT22;43657;52.698;6.314;2023-03-23T04:52:57;10.70;99.90
57829;DHT22;43657;52.698;6.314;2023-03-23T04:55:24;10.60;99.90
57829;DHT22;43657;52.698;6.314;2023-03-23T04:57:50;10.60;99.90
57829;DHT22;43657;52.698;6.314;2023-03-23T05:00:16;10.50;99.90
57829;DHT22;43657;52.698;6.314;2023-03-23T05:02:43;10.50;99.90
57829;DHT22;43657;52.698;6.314;2023-03-23T05:05:11;10.50;99.90
57829;DHT22;43657;52.698;6.314;2023-03-23T05:07:37;10.40;99.90
57829;DHT22;43657;52.698;6.314;2023-03-23T05:10:05;10.30;99.90
57829;DHT22;43657;52.698;6.314;2023-03-23T05:12:31;10.30;99.90
57829;DHT22;43657;52.698;6.314;2023-03-23T05:14:57;10.30;99.90
57829;DHT22;43657;52.698;6.314;2023-03-23T05:17:22;10.20;99.90
57829;DHT22;43657;52.698;6.314;2023-03-23T05:19:52;10.20;99.90
57829;DHT22;43657;52.698;6.314;2023-03-23T05:22:18;10.20;99.90
57829;DHT22;43657;52.698;6.314;2023-03-23T05:24:46;10.20;99.90
57829;DHT22;43657;52.698;6.314;2023-03-23T05:27:13;10.20;99.90
57829;DHT22;43657;52.698;6.314;2023-03-23T05:29:40;10.20;99.90
57829;DHT22;43657;52.698;6.314;2023-03-23T05:32:07;10.20;99.90
57829;DHT22;43657;52.698;6.314;2023-03-23T05:34:34;10.30;99.90
57829;DHT22;43657;52.698;6.314;2023-03-23T05:37:01;10.30;99.90
57829;DHT22;43657;52.698;6.314;2023-03-23T05:39:27;10.30;99.90
57829;DHT22;43657;52.698;6.314;2023-03-23T05:41:53;10.30;99.90
57829;DHT22;43657;52.698;6.314;2023-03-23T05:44:19;10.30;99.90
57829;DHT22;43657;52.698;6.314;2023-03-23T05:46:45;10.30;99.90
57829;DHT22;43657;52.698;6.314;2023-03-23T05:49:11;10.20;99.90
57829;DHT22;43657;52.698;6.314;2023-03-23T05:51:36;10.20;99.90
57829;DHT22;43657;52.698;6.314;2023-03-23T05:54:02;10.20;99.90
57829;DHT22;43657;52.698;6.314;2023-03-23T05:56:29;10.10;99.90
57829;DHT22;43657;52.698;6.314;2023-03-23T05:58:56;10.10;99.90
57829;DHT22;43657;52.698;6.314;2023-03-23T06:01:21;10.10;99.90
57829;DHT22;43657;52.698;6.314;2023-03-23T06:03:49;10.10;99.90
57829;DHT22;43657;52.698;6.314;2023-03-23T06:06:17;10.10;99.90
57829;DHT22;43657;52.698;6.314;2023-03-23T06:08:43;10.10;99.90
57829;DHT22;43657;52.698;6.314;2023-03-23T06:11:09;10.10;99.90
57829;DHT22;43657;52.698;6.314;2023-03-23T06:13:35;10.20;99.90
57829;DHT22;43657;52.698;6.314;2023-03-23T06:16:02;10.20;99.90
57829;DHT22;43657;52.698;6.314;2023-03-23T06:18:29;10.20;99.90
57829;DHT22;43657;52.698;6.314;2023-03-23T06:20:59;10.20;99.90
57829;DHT22;43657;52.698;6.314;2023-03-23T06:23:25;10.20;99.90
57829;DHT22;43657;52.698;6.314;2023-03-23T06:25:54;10.20;99.90
57829;DHT22;43657;52.698;6.314;2023-03-23T06:28:20;10.20;99.90
57829;DHT22;43657;52.698;6.314;2023-03-23T06:30:46;10.20;99.90
57829;DHT22;43657;52.698;6.314;2023-03-23T06:33:11;10.20;99.90
57829;DHT22;43657;52.698;6.314;2023-03-23T06:35:37;10.20;99.90
57829;DHT22;43657;52.698;6.314;2023-03-23T06:38:03;10.20;99.90
57829;DHT22;43657;52.698;6.314;2023-03-23T06:40:28;10.30;99.90
57829;DHT22;43657;52.698;6.314;2023-03-23T06:42:56;10.20;99.90
57829;DHT22;43657;52.698;6.314;2023-03-23T07:08:39;10.50;99.90
57829;DHT22;43657;52.698;6.314;2023-03-23T07:11:24;10.50;99.90
57829;DHT22;43657;52.698;6.314;2023-03-23T07:20:36;10.70;99.90
57829;DHT22;43657;52.698;6.314;2023-03-23T07:23:03;10.70;99.90
57829;DHT22;43657;52.698;6.314;2023-03-23T07:25:31;10.70;99.90
57829;DHT22;43657;52.698;6.314;2023-03-23T07:28:01;10.80;99.90
57829;DHT22;43657;52.698;6.314;2023-03-23T07:30:27;10.90;99.90
57829;DHT22;43657;52.698;6.314;2023-03-23T07:32:55;11.00;99.90
57829;DHT22;43657;52.698;6.314;2023-03-23T07:35:21;11.10;99.90
57829;DHT22;43657;52.698;6.314;2023-03-23T07:37:47;11.10;99.90
57829;DHT22;43657;52.698;6.314;2023-03-23T07:40:14;11.20;99.90
57829;DHT22;43657;52.698;6.314;2023-03-23T07:42:45;11.20;99.90
57829;DHT22;43657;52.698;6.314;2023-03-23T07:45:12;11.30;99.90
57829;DHT22;43657;52.698;6.314;2023-03-23T07:47:39;11.30;99.90
57829;DHT22;43657;52.698;6.314;2023-03-23T07:50:06;11.30;99.90
57829;DHT22;43657;52.698;6.314;2023-03-23T07:52:33;11.30;99.90
57829;DHT22;43657;52.698;6.314;2023-03-23T07:54:59;11.40;99.90
57829;DHT22;43657;52.698;6.314;2023-03-23T07:57:26;11.30;99.90
57829;DHT22;43657;52.698;6.314;2023-03-23T07:59:52;11.40;99.90
57829;DHT22;43657;52.698;6.314;2023-03-23T08:02:18;11.50;99.90
57829;DHT22;43657;52.698;6.314;2023-03-23T08:04:43;11.40;99.90
57829;DHT22;43657;52.698;6.314;2023-03-23T08:07:10;11.40;99.90
57829;DHT22;43657;52.698;6.314;2023-03-23T08:09:37;11.40;99.90
57829;DHT22;43657;52.698;6.314;2023-03-23T08:12:04;11.40;99.90
57829;DHT22;43657;52.698;6.314;2023-03-23T08:14:30;11.50;99.90
57829;DHT22;43657;52.698;6.314;2023-03-23T08:16:56;11.50;99.90
57829;DHT22;43657;52.698;6.314;2023-03-23T08:19:22;11.50;99.90
57829;DHT22;43657;52.698;6.314;2023-03-23T08:21:48;11.50;99.90
57829;DHT22;43657;52.698;6.314;2023-03-23T08:24:14;11.40;99.90
57829;DHT22;43657;52.698;6.314;2023-03-23T08:26:41;11.50;99.90
57829;DHT22;43657;52.698;6.314;2023-03-23T08:29:07;11.40;99.90
57829;DHT22;43657;52.698;6.314;2023-03-23T08:31:34;11.40;99.90
57829;DHT22;43657;52.698;6.314;2023-03-23T08:34:01;11.40;99.90
57829;DHT22;43657;52.698;6.314;2023-03-23T08:36:27;11.40;99.90
57829;DHT22;43657;52.698;6.314;2023-03-23T08:38:54;11.40;99.90
57829;DHT22;43657;52.698;6.314;2023-03-23T08:41:20;11.40;99.90
57829;DHT22;43657;52.698;6.314;2023-03-23T08:43:46;11.50;99.90
57829;DHT22;43657;52.698;6.314;2023-03-23T08:46:12;11.60;99.90
57829;DHT22;43657;52.698;6.314;2023-03-23T08:48:38;11.60;99.90
57829;DHT22;43657;52.698;6.314;2023-03-23T08:51:05;11.60;99.90
57829;DHT22;43657;52.698;6.314;2023-03-23T08:53:31;11.60;99.90
57829;DHT22;43657;52.698;6.314;2023-03-23T08:56:04;11.50;99.90
57829;DHT22;43657;52.698;6.314;2023-03-23T08:58:30;11.50;99.90
57829;DHT22;43657;52.698;6.314;2023-03-23T09:00:55;11.50;99.90
57829;DHT22;43657;52.698;6.314;2023-03-23T09:03:21;11.50;99.90
57829;DHT22;43657;52.698;6.314;2023-03-23T09:05:46;11.50;99.90
57829;DHT22;43657;52.698;6.314;2023-03-23T09:08:14;11.60;99.90
57829;DHT22;43657;52.698;6.314;2023-03-23T09:10:40;11.60;99.90
57829;DHT22;43657;52.698;6.314;2023-03-23T09:13:06;11.60;99.90
57829;DHT22;43657;52.698;6.314;2023-03-23T09:15:32;11.70;99.90
57829;DHT22;43657;52.698;6.314;2023-03-23T09:17:58;11.60;99.90
57829;DHT22;43657;52.698;6.314;2023-03-23T09:20:25;11.60;99.90
57829;DHT22;43657;52.698;6.314;2023-03-23T09:22:54;11.50;99.90
57829;DHT22;43657;52.698;6.314;2023-03-23T09:25:24;11.60;99.90
57829;DHT22;43657;52.698;6.314;2023-03-23T09:27:58;11.90;99.90
57829;DHT22;43657;52.698;6.314;2023-03-23T09:30:29;12.50;99.90
57829;DHT22;43657;52.698;6.314;2023-03-23T09:32:56;13.00;99.90
57829;DHT22;43657;52.698;6.314;2023-03-23T09:35:23;13.40;99.90
57829;DHT22;43657;52.698;6.314;2023-03-23T09:37:50;14.00;99.90
57829;DHT22;43657;52.698;6.314;2023-03-23T09:40:25;14.70;99.90
57829;DHT22;43657;52.698;6.314;2023-03-23T09:45:48;15.50;99.90
57829;DHT22;43657;52.698;6.314;2023-03-23T09:51:11;15.90;99.90
57829;DHT22;43657;52.698;6.314;2023-03-23T09:53:41;16.00;99.90
57829;DHT22;43657;52.698;6.314;2023-03-23T09:56:13;16.10;99.90
57829;DHT22;43657;52.698;6.314;2023-03-23T10:01:17;16.00;99.90
57829;DHT22;43657;52.698;6.314;2023-03-23T10:03:44;15.70;99.90
57829;DHT22;43657;52.698;6.314;2023-03-23T10:06:13;15.00;99.90
57829;DHT22;43657;52.698;6.314;2023-03-23T10:08:45;14.30;99.90
57829;DHT22;43657;52.698;6.314;2023-03-23T10:16:45;13.10;99.90
57829;DHT22;43657;52.698;6.314;2023-03-23T10:22:17;13.20;99.90
57829;DHT22;43657;52.698;6.314;2023-03-23T10:24:57;13.10;99.90
57829;DHT22;43657;52.698;6.314;2023-03-23T10:28:35;13.40;99.90
57829;DHT22;43657;52.698;6.314;2023-03-23T10:30:40;13.40;99.90
57829;DHT22;43657;52.698;6.314;2023-03-23T10:35:39;13.60;99.90
57829;DHT22;43657;52.698;6.314;2023-03-23T10:38:22;13.80;99.90
57829;DHT22;43657;52.698;6.314;2023-03-23T10:41:06;14.70;99.90
57829;DHT22;43657;52.698;6.314;2023-03-23T10:43:37;15.50;99.90
57829;DHT22;43657;52.698;6.314;2023-03-23T10:46:21;16.30;99.90
57829;DHT22;43657;52.698;6.314;2023-03-23T10:48:49;16.80;99.90
57829;DHT22;43657;52.698;6.314;2023-03-23T10:51:18;16.80;99.90
57829;DHT22;43657;52.698;6.314;2023-03-23T10:53:50;17.00;99.90
57829;DHT22;43657;52.698;6.314;2023-03-23T10:56:29;16.90;99.90
57829;DHT22;43657;52.698;6.314;2023-03-23T10:58:59;16.10;99.90
57829;DHT22;43657;52.698;6.314;2023-03-23T11:01:33;15.50;99.90
57829;DHT22;43657;52.698;6.314;2023-03-23T11:04:00;14.90;99.90
57829;DHT22;43657;52.698;6.314;2023-03-23T11:06:32;14.50;99.90
57829;DHT22;43657;52.698;6.314;2023-03-23T11:09:08;14.60;99.90
57829;DHT22;43657;52.698;6.314;2023-03-23T11:11:39;14.60;99.90
57829;DHT22;43657;52.698;6.314;2023-03-23T11:14:20;14.50;99.90
57829;DHT22;43657;52.698;6.314;2023-03-23T11:16:58;14.10;99.90
57829;DHT22;43657;52.698;6.314;2023-03-23T11:19:36;13.70;99.90
57829;DHT22;43657;52.698;6.314;2023-03-23T11:24:41;14.70;99.90
57829;DHT22;43657;52.698;6.314;2023-03-23T11:27:09;15.50;99.90
57829;DHT22;43657;52.698;6.314;2023-03-23T11:29:47;16.30;99.90
57829;DHT22;43657;52.698;6.314;2023-03-23T11:32:14;16.90;99.90
57829;DHT22;43657;52.698;6.314;2023-03-23T11:34:43;17.30;99.90
57829;DHT22;43657;52.698;6.314;2023-03-23T11:37:24;17.40;99.90
57829;DHT22;43657;52.698;6.314;2023-03-23T11:39:59;17.50;99.90
57829;DHT22;43657;52.698;6.314;2023-03-23T11:42:34;17.50;99.90
57829;DHT22;43657;52.698;6.314;2023-03-23T11:45:14;17.00;99.90
57829;DHT22;43657;52.698;6.314;2023-03-23T11:48:06;16.20;99.90
57829;DHT22;43657;52.698;6.314;2023-03-23T11:50:44;15.60;99.90
57829;DHT22;43657;52.698;6.314;2023-03-23T11:53:22;15.40;99.90
57829;DHT22;43657;52.698;6.314;2023-03-23T11:55:55;15.40;99.90
57829;DHT22;43657;52.698;6.314;2023-03-23T11:58:21;15.20;99.90
57829;DHT22;43657;52.698;6.314;2023-03-23T12:01:00;15.90;99.90
57829;DHT22;43657;52.698;6.314;2023-03-23T12:03:58;16.90;99.90
57829;DHT22;43657;52.698;6.314;2023-03-23T12:09:31;16.80;99.90
57829;DHT22;43657;52.698;6.314;2023-03-23T12:12:16;16.80;99.90
57829;DHT22;43657;52.698;6.314;2023-03-23T12:17:35;16.80;99.90
57829;DHT22;43657;52.698;6.314;2023-03-23T12:20:28;16.40;99.90
57829;DHT22;43657;52.698;6.314;2023-03-23T12:30:56;16.20;99.90
57829;DHT22;43657;52.698;6.314;2023-03-23T12:45:11;14.80;99.90
57829;DHT22;43657;52.698;6.314;2023-03-23T12:48:00;15.70;99.90
57829;DHT22;43657;52.698;6.314;2023-03-23T12:50:46;16.80;99.90
57829;DHT22;43657;52.698;6.314;2023-03-23T12:53:19;17.60;99.90
57829;DHT22;43657;52.698;6.314;2023-03-23T12:58:25;18.40;99.90
57829;DHT22;43657;52.698;6.314;2023-03-23T13:01:05;18.50;99.90
57829;DHT22;43657;52.698;6.314;2023-03-23T13:03:49;18.70;91.50
57829;DHT22;43657;52.698;6.314;2023-03-23T13:09:22;18.50;95.80
57829;DHT22;43657;52.698;6.314;2023-03-23T13:11:50;18.30;88.80
57829;DHT22;43657;52.698;6.314;2023-03-23T13:14:40;17.90;91.50
57829;DHT22;43657;52.698;6.314;2023-03-23T13:19:59;17.90;95.60
57829;DHT22;43657;52.698;6.314;2023-03-23T13:28:02;17.20;97.60
57829;DHT22;43657;52.698;6.314;2023-03-23T13:30:28;16.70;99.90
57829;DHT22;43657;52.698;6.314;2023-03-23T13:33:11;16.10;99.90
57829;DHT22;43657;52.698;6.314;2023-03-23T13:35:40;15.60;99.90
57829;DHT22;43657;52.698;6.314;2023-03-23T13:38:27;15.20;99.90
57829;DHT22;43657;52.698;6.314;2023-03-23T13:40:56;15.00;99.90
57829;DHT22;43657;52.698;6.314;2023-03-23T13:43:33;14.90;99.90
57829;DHT22;43657;52.698;6.314;2023-03-23T13:46:29;14.70;99.90
57829;DHT22;43657;52.698;6.314;2023-03-23T13:54:23;14.10;99.90
57829;DHT22;43657;52.698;6.314;2023-03-23T13:56:54;13.90;99.90
57829;DHT22;43657;52.698;6.314;2023-03-23T14:02:20;13.40;99.90
57829;DHT22;43657;52.698;6.314;2023-03-23T14:04:38;13.10;99.90
57829;DHT22;43657;52.698;6.314;2023-03-23T14:07:11;13.00;99.90
57829;DHT22;43657;52.698;6.314;2023-03-23T14:09:40;13.50;99.90
57829;DHT22;43657;52.698;6.314;2023-03-23T14:12:19;13.70;99.90
57829;DHT22;43657;52.698;6.314;2023-03-23T14:15:05;14.00;99.90
57829;DHT22;43657;52.698;6.314;2023-03-23T14:17:39;13.90;99.90
57829;DHT22;43657;52.698;6.314;2023-03-23T14:20:06;13.70;99.90
57829;DHT22;43657;52.698;6.314;2023-03-23T14:22:34;13.50;99.90
57829;DHT22;43657;52.698;6.314;2023-03-23T14:25:21;13.40;99.90
57829;DHT22;43657;52.698;6.314;2023-03-23T14:27:47;13.50;99.90
57829;DHT22;43657;52.698;6.314;2023-03-23T14:30:19;14.00;99.90
57829;DHT22;43657;52.698;6.314;2023-03-23T14:32:45;14.50;99.90
57829;DHT22;43657;52.698;6.314;2023-03-23T14:35:28;14.70;99.90
57829;DHT22;43657;52.698;6.314;2023-03-23T14:37:55;14.90;99.90
57829;DHT22;43657;52.698;6.314;2023-03-23T14:40:21;14.90;99.90
57829;DHT22;43657;52.698;6.314;2023-03-23T14:42:47;14.80;99.90
57829;DHT22;43657;52.698;6.314;2023-03-23T14:45:16;14.70;99.90
57829;DHT22;43657;52.698;6.314;2023-03-23T14:47:59;14.80;99.90
57829;DHT22;43657;52.698;6.314;2023-03-23T14:52:51;14.90;99.90
57829;DHT22;43657;52.698;6.314;2023-03-23T14:55:20;15.00;99.90
57829;DHT22;43657;52.698;6.314;2023-03-23T14:57:49;15.10;99.90
57829;DHT22;43657;52.698;6.314;2023-03-23T15:00:23;15.10;99.90
57829;DHT22;43657;52.698;6.314;2023-03-23T15:02:54;15.20;99.90
57829;DHT22;43657;52.698;6.314;2023-03-23T15:05:29;15.20;99.90
57829;DHT22;43657;52.698;6.314;2023-03-23T15:08:02;15.30;99.90
57829;DHT22;43657;52.698;6.314;2023-03-23T15:10:28;15.50;99.90
57829;DHT22;43657;52.698;6.314;2023-03-23T15:12:54;15.60;99.90
57829;DHT22;43657;52.698;6.314;2023-03-23T15:15:34;15.60;99.90
57829;DHT22;43657;52.698;6.314;2023-03-23T15:18:02;15.50;99.90
57829;DHT22;43657;52.698;6.314;2023-03-23T15:20:46;15.50;99.90
57829;DHT22;43657;52.698;6.314;2023-03-23T15:23:17;15.50;99.90
57829;DHT22;43657;52.698;6.314;2023-03-23T15:25:51;15.40;99.90
57829;DHT22;43657;52.698;6.314;2023-03-23T15:28:20;15.30;99.90
57829;DHT22;43657;52.698;6.314;2023-03-23T15:30:52;15.10;99.90
57829;DHT22;43657;52.698;6.314;2023-03-23T15:33:18;15.00;99.90
57829;DHT22;43657;52.698;6.314;2023-03-23T15:35:52;15.00;99.90
57829;DHT22;43657;52.698;6.314;2023-03-23T15:38:30;15.00;99.90
57829;DHT22;43657;52.698;6.314;2023-03-23T15:41:02;15.00;99.90
57829;DHT22;43657;52.698;6.314;2023-03-23T15:43:32;15.00;99.90
57829;DHT22;43657;52.698;6.314;2023-03-23T15:51:25;14.90;99.90
57829;DHT22;43657;52.698;6.314;2023-03-23T15:53:52;14.80;99.90
57829;DHT22;43657;52.698;6.314;2023-03-23T15:56:18;14.80;99.90
57829;DHT22;43657;52.698;6.314;2023-03-23T15:58:44;14.80;99.90
57829;DHT22;43657;52.698;6.314;2023-03-23T16:03:52;14.50;99.90
57829;DHT22;43657;52.698;6.314;2023-03-23T16:06:20;14.50;99.90
57829;DHT22;43657;52.698;6.314;2023-03-23T16:08:46;14.40;99.90
57829;DHT22;43657;52.698;6.314;2023-03-23T16:11:13;14.10;99.90
57829;DHT22;43657;52.698;6.314;2023-03-23T16:13:39;14.00;99.90
57829;DHT22;43657;52.698;6.314;2023-03-23T16:16:10;13.90;99.90
57829;DHT22;43657;52.698;6.314;2023-03-23T16:18:36;13.80;99.90
57829;DHT22;43657;52.698;6.314;2023-03-23T16:21:02;13.70;99.90
57829;DHT22;43657;52.698;6.314;2023-03-23T16:23:28;13.70;99.90
57829;DHT22;43657;52.698;6.314;2023-03-23T16:25:53;13.70;99.90
57829;DHT22;43657;52.698;6.314;2023-03-23T16:28:19;13.60;99.90
57829;DHT22;43657;52.698;6.314;2023-03-23T16:30:46;13.70;99.90
57829;DHT22;43657;52.698;6.314;2023-03-23T16:33:12;13.70;99.90
57829;DHT22;43657;52.698;6.314;2023-03-23T16:35:37;13.70;99.90
57829;DHT22;43657;52.698;6.314;2023-03-23T16:38:04;13.80;99.90
57829;DHT22;43657;52.698;6.314;2023-03-23T16:40:30;13.80;99.90
57829;DHT22;43657;52.698;6.314;2023-03-23T16:42:56;13.80;99.90
57829;DHT22;43657;52.698;6.314;2023-03-23T16:45:21;13.70;99.90
57829;DHT22;43657;52.698;6.314;2023-03-23T16:47:49;13.60;99.90
57829;DHT22;43657;52.698;6.314;2023-03-23T16:50:16;13.40;99.90
57829;DHT22;43657;52.698;6.314;2023-03-23T16:52:43;13.20;99.90
57829;DHT22;43657;52.698;6.314;2023-03-23T16:55:10;13.00;99.90
57829;DHT22;43657;52.698;6.314;2023-03-23T16:57:37;12.80;99.90
57829;DHT22;43657;52.698;6.314;2023-03-23T17:00:05;12.70;99.90
57829;DHT22;43657;52.698;6.314;2023-03-23T17:02:32;12.70;99.90
57829;DHT22;43657;52.698;6.314;2023-03-23T17:04:57;12.60;99.90
57829;DHT22;43657;52.698;6.314;2023-03-23T17:07:23;12.50;99.90
57829;DHT22;43657;52.698;6.314;2023-03-23T17:09:49;12.50;99.90
57829;DHT22;43657;52.698;6.314;2023-03-23T17:12:15;12.40;99.90
57829;DHT22;43657;52.698;6.314;2023-03-23T17:14:41;12.40;99.90
57829;DHT22;43657;52.698;6.314;2023-03-23T17:17:06;12.40;99.90
57829;DHT22;43657;52.698;6.314;2023-03-23T17:19:32;12.30;99.90
57829;DHT22;43657;52.698;6.314;2023-03-23T17:21:58;12.30;99.90
57829;DHT22;43657;52.698;6.314;2023-03-23T17:24:23;12.30;99.90
57829;DHT22;43657;52.698;6.314;2023-03-23T17:26:49;12.30;99.90
57829;DHT22;43657;52.698;6.314;2023-03-23T17:29:15;12.20;99.90
57829;DHT22;43657;52.698;6.314;2023-03-23T17:31:42;12.30;99.90
57829;DHT22;43657;52.698;6.314;2023-03-23T17:34:08;12.20;99.90
57829;DHT22;43657;52.698;6.314;2023-03-23T17:36:33;12.20;99.90
57829;DHT22;43657;52.698;6.314;2023-03-23T17:38:59;12.20;99.90
57829;DHT22;43657;52.698;6.314;2023-03-23T17:41:25;12.20;99.90
57829;DHT22;43657;52.698;6.314;2023-03-23T17:43:50;12.10;99.90
57829;DHT22;43657;52.698;6.314;2023-03-23T17:46:16;12.10;99.90
57829;DHT22;43657;52.698;6.314;2023-03-23T17:48:42;12.10;99.90
57829;DHT22;43657;52.698;6.314;2023-03-23T17:51:08;12.10;99.90
57829;DHT22;43657;52.698;6.314;2023-03-23T17:53:34;12.00;99.90
57829;DHT22;43657;52.698;6.314;2023-03-23T17:56:01;12.00;99.90
57829;DHT22;43657;52.698;6.314;2023-03-23T17:58:27;12.00;99.90
57829;DHT22;43657;52.698;6.314;2023-03-23T18:00:54;11.90;99.90
57829;DHT22;43657;52.698;6.314;2023-03-23T18:03:20;11.90;99.90
57829;DHT22;43657;52.698;6.314;2023-03-23T18:05:46;11.90;99.90
57829;DHT22;43657;52.698;6.314;2023-03-23T18:08:12;11.90;99.90
57829;DHT22;43657;52.698;6.314;2023-03-23T18:10:39;11.80;99.90
57829;DHT22;43657;52.698;6.314;2023-03-23T18:13:06;11.80;99.90
57829;DHT22;43657;52.698;6.314;2023-03-23T18:15:34;11.80;99.90
57829;DHT22;43657;52.698;6.314;2023-03-23T18:18:02;11.80;99.90
57829;DHT22;43657;52.698;6.314;2023-03-23T18:20:29;11.80;99.90